sensor_id;sensor_type;location;lat;lon;timestamp;P1;durP1;ratioP1;P2;durP2;ratioP2
2187;SDS011;1100;52.014;8.540;2022-08-21T00:00:18;5.55;;;1.30;;
2187;SDS011;1100;52.014;8.540;2022-08-21T00:02:53;6.83;;;1.53;;
2187;SDS011;1100;52.014;8.540;2022-08-21T00:05:23;5.25;;;1.50;;
2187;SDS011;1100;52.014;8.540;2022-08-21T00:07:50;5.35;;;1.30;;
2187;SDS011;1100;52.014;8.540;2022-08-21T00:10:15;6.60;;;1.45;;
2187;SDS011;1100;52.014;8.540;2022-08-21T00:12:42;5.20;;;1.40;;
2187;SDS011;1100;52.014;8.540;2022-08-21T00:15:09;4.30;;;1.50;;
2187;SDS011;1100;52.014;8.540;2022-08-21T00:17:35;5.13;;;1.30;;
2187;SDS011;1100;52.014;8.540;2022-08-21T00:20:03;4.10;;;1.40;;
2187;SDS011;1100;52.014;8.540;2022-08-21T00:22:31;5.10;;;1.30;;
2187;SDS011;1100;52.014;8.540;2022-08-21T00:24:57;6.18;;;1.80;;
2187;SDS011;1100;52.014;8.540;2022-08-21T00:27:23;5.43;;;1.33;;
2187;SDS011;1100;52.014;8.540;2022-08-21T00:29:48;4.60;;;1.23;;
2187;SDS011;1100;52.014;8.540;2022-08-21T00:32:18;6.00;;;1.50;;
2187;SDS011;1100;52.014;8.540;2022-08-21T00:34:46;6.15;;;1.52;;
2187;SDS011;1100;52.014;8.540;2022-08-21T00:37:11;5.53;;;1.45;;
2187;SDS011;1100;52.014;8.540;2022-08-21T00:39:37;5.80;;;1.40;;
2187;SDS011;1100;52.014;8.540;2022-08-21T00:42:02;5.87;;;1.70;;
2187;SDS011;1100;52.014;8.540;2022-08-21T00:44:28;4.67;;;1.63;;
2187;SDS011;1100;52.014;8.540;2022-08-21T00:46:53;4.22;;;1.33;;
2187;SDS011;1100;52.014;8.540;2022-08-21T00:49:18;4.43;;;1.30;;
2187;SDS011;1100;52.014;8.540;2022-08-21T00:51:51;6.37;;;1.53;;
2187;SDS011;1100;52.014;8.540;2022-08-21T00:54:22;5.13;;;1.60;;
2187;SDS011;1100;52.014;8.540;2022-08-21T00:56:50;6.45;;;1.83;;
2187;SDS011;1100;52.014;8.540;2022-08-21T00:59:20;4.55;;;1.95;;
2187;SDS011;1100;52.014;8.540;2022-08-21T01:01:47;5.27;;;2.20;;
2187;SDS011;1100;52.014;8.540;2022-08-21T01:04:13;5.97;;;1.60;;
2187;SDS011;1100;52.014;8.540;2022-08-21T01:06:41;4.88;;;1.88;;
2187;SDS011;1100;52.014;8.540;2022-08-21T01:09:06;5.93;;;1.93;;
2187;SDS011;1100;52.014;8.540;2022-08-21T01:11:31;4.63;;;1.83;;
2187;SDS011;1100;52.014;8.540;2022-08-21T01:13:57;5.83;;;1.77;;
2187;SDS011;1100;52.014;8.540;2022-08-21T01:16:22;5.22;;;1.98;;
2187;SDS011;1100;52.014;8.540;2022-08-21T01:18:49;4.68;;;2.00;;
2187;SDS011;1100;52.014;8.540;2022-08-21T01:21:22;6.25;;;2.03;;
2187;SDS011;1100;52.014;8.540;2022-08-21T01:23:53;6.53;;;2.00;;
2187;SDS011;1100;52.014;8.540;2022-08-21T01:26:22;7.27;;;2.00;;
2187;SDS011;1100;52.014;8.540;2022-08-21T01:29:27;6.22;;;2.17;;
2187;SDS011;1100;52.014;8.540;2022-08-21T01:31:51;5.80;;;2.40;;
2187;SDS011;1100;52.014;8.540;2022-08-21T01:34:16;5.43;;;2.30;;
2187;SDS011;1100;52.014;8.540;2022-08-21T01:36:43;6.70;;;2.22;;
2187;SDS011;1100;52.014;8.540;2022-08-21T01:39:10;5.93;;;2.30;;
2187;SDS011;1100;52.014;8.540;2022-08-21T01:41:36;5.07;;;2.15;;
2187;SDS011;1100;52.014;8.540;2022-08-21T01:44:02;7.23;;;3.10;;
2187;SDS011;1100;52.014;8.540;2022-08-21T01:46:27;9.37;;;3.97;;
2187;SDS011;1100;52.014;8.540;2022-08-21T01:48:53;9.10;;;4.43;;
2187;SDS011;1100;52.014;8.540;2022-08-21T01:51:18;8.03;;;3.80;;
2187;SDS011;1100;52.014;8.540;2022-08-21T01:53:44;7.07;;;3.20;;
2187;SDS011;1100;52.014;8.540;2022-08-21T01:56:10;6.73;;;2.77;;
2187;SDS011;1100;52.014;8.540;2022-08-21T01:58:39;7.60;;;3.58;;
2187;SDS011;1100;52.014;8.540;2022-08-21T02:01:06;7.78;;;3.72;;
2187;SDS011;1100;52.014;8.540;2022-08-21T02:03:31;9.32;;;3.60;;
2187;SDS011;1100;52.014;8.540;2022-08-21T02:05:57;8.17;;;3.40;;
2187;SDS011;1100;52.014;8.540;2022-08-21T02:08:23;8.33;;;3.47;;
2187;SDS011;1100;52.014;8.540;2022-08-21T02:10:48;6.80;;;3.60;;
2187;SDS011;1100;52.014;8.540;2022-08-21T02:13:15;9.27;;;3.87;;
2187;SDS011;1100;52.014;8.540;2022-08-21T02:15:41;8.57;;;3.90;;
2187;SDS011;1100;52.014;8.540;2022-08-21T02:18:07;9.53;;;4.20;;
2187;SDS011;1100;52.014;8.540;2022-08-21T02:20:36;7.13;;;3.40;;
2187;SDS011;1100;52.014;8.540;2022-08-21T02:23:05;8.95;;;4.35;;
2187;SDS011;1100;52.014;8.540;2022-08-21T02:25:31;8.63;;;4.32;;
2187;SDS011;1100;52.014;8.540;2022-08-21T02:27:57;7.82;;;3.65;;
2187;SDS011;1100;52.014;8.540;2022-08-21T02:30:25;8.97;;;4.50;;
2187;SDS011;1100;52.014;8.540;2022-08-21T02:32:54;9.93;;;4.40;;
2187;SDS011;1100;52.014;8.540;2022-08-21T02:35:20;8.95;;;4.32;;
2187;SDS011;1100;52.014;8.540;2022-08-21T02:37:51;8.35;;;4.93;;
2187;SDS011;1100;52.014;8.540;2022-08-21T02:40:20;10.97;;;4.97;;
2187;SDS011;1100;52.014;8.540;2022-08-21T02:42:47;9.80;;;5.10;;
2187;SDS011;1100;52.014;8.540;2022-08-21T02:45:12;10.20;;;5.13;;
2187;SDS011;1100;52.014;8.540;2022-08-21T02:47:39;9.73;;;4.88;;
2187;SDS011;1100;52.014;8.540;2022-08-21T02:50:11;9.50;;;4.65;;
2187;SDS011;1100;52.014;8.540;2022-08-21T02:52:36;8.57;;;4.80;;
2187;SDS011;1100;52.014;8.540;2022-08-21T02:55:02;9.87;;;4.67;;
2187;SDS011;1100;52.014;8.540;2022-08-21T02:57:28;10.25;;;4.63;;
2187;SDS011;1100;52.014;8.540;2022-08-21T02:59:53;8.43;;;4.90;;
2187;SDS011;1100;52.014;8.540;2022-08-21T03:02:18;10.47;;;5.00;;
2187;SDS011;1100;52.014;8.540;2022-08-21T03:04:43;9.50;;;4.57;;
2187;SDS011;1100;52.014;8.540;2022-08-21T03:07:09;10.63;;;5.10;;
2187;SDS011;1100;52.014;8.540;2022-08-21T03:09:34;8.10;;;4.20;;
2187;SDS011;1100;52.014;8.540;2022-08-21T03:11:59;10.47;;;4.60;;
2187;SDS011;1100;52.014;8.540;2022-08-21T03:14:25;11.40;;;5.50;;
2187;SDS011;1100;52.014;8.540;2022-08-21T03:16:50;8.53;;;4.97;;
2187;SDS011;1100;52.014;8.540;2022-08-21T03:19:15;10.87;;;4.93;;
2187;SDS011;1100;52.014;8.540;2022-08-21T03:21:41;9.60;;;4.80;;
2187;SDS011;1100;52.014;8.540;2022-08-21T03:24:06;8.13;;;5.30;;
2187;SDS011;1100;52.014;8.540;2022-08-21T03:26:32;9.03;;;4.97;;
2187;SDS011;1100;52.014;8.540;2022-08-21T03:28:57;11.57;;;5.17;;
2187;SDS011;1100;52.014;8.540;2022-08-21T03:31:23;10.88;;;5.32;;
2187;SDS011;1100;52.014;8.540;2022-08-21T03:33:49;9.27;;;5.47;;
2187;SDS011;1100;52.014;8.540;2022-08-21T03:36:14;9.02;;;5.18;;
2187;SDS011;1100;52.014;8.540;2022-08-21T03:38:40;13.03;;;5.60;;
2187;SDS011;1100;52.014;8.540;2022-08-21T03:41:06;8.10;;;5.00;;
2187;SDS011;1100;52.014;8.540;2022-08-21T03:43:32;8.93;;;4.78;;
2187;SDS011;1100;52.014;8.540;2022-08-21T03:45:58;8.43;;;4.83;;
2187;SDS011;1100;52.014;8.540;2022-08-21T03:48:26;7.72;;;4.47;;
2187;SDS011;1100;52.014;8.540;2022-08-21T03:50:52;11.30;;;4.95;;
2187;SDS011;1100;52.014;8.540;2022-08-21T03:53:18;8.00;;;4.60;;
2187;SDS011;1100;52.014;8.540;2022-08-21T03:55:45;10.53;;;5.20;;
2187;SDS011;1100;52.014;8.540;2022-08-21T03:58:11;9.93;;;5.40;;
2187;SDS011;1100;52.014;8.540;2022-08-21T04:00:37;10.73;;;5.50;;
2187;SDS011;1100;52.014;8.540;2022-08-21T04:03:02;9.88;;;5.07;;
2187;SDS011;1100;52.014;8.540;2022-08-21T04:05:28;10.67;;;5.30;;
2187;SDS011;1100;52.014;8.540;2022-08-21T04:07:54;10.90;;;5.07;;
2187;SDS011;1100;52.014;8.540;2022-08-21T04:10:24;10.48;;;5.03;;
2187;SDS011;1100;52.014;8.540;2022-08-21T04:12:52;10.32;;;5.38;;
2187;SDS011;1100;52.014;8.540;2022-08-21T04:15:19;9.43;;;4.63;;
2187;SDS011;1100;52.014;8.540;2022-08-21T04:17:45;10.27;;;5.17;;
2187;SDS011;1100;52.014;8.540;2022-08-21T04:20:10;9.63;;;5.57;;
2187;SDS011;1100;52.014;8.540;2022-08-21T04:22:37;12.10;;;6.15;;
2187;SDS011;1100;52.014;8.540;2022-08-21T04:25:03;9.03;;;5.30;;
2187;SDS011;1100;52.014;8.540;2022-08-21T04:27:28;9.97;;;5.50;;
2187;SDS011;1100;52.014;8.540;2022-08-21T04:29:54;12.07;;;5.57;;
2187;SDS011;1100;52.014;8.540;2022-08-21T04:32:23;10.70;;;5.75;;
2187;SDS011;1100;52.014;8.540;2022-08-21T04:34:49;11.87;;;6.03;;
2187;SDS011;1100;52.014;8.540;2022-08-21T04:37:14;10.50;;;5.32;;
2187;SDS011;1100;52.014;8.540;2022-08-21T04:39:40;10.97;;;5.30;;
2187;SDS011;1100;52.014;8.540;2022-08-21T04:42:07;11.25;;;5.68;;
2187;SDS011;1100;52.014;8.540;2022-08-21T04:44:33;21.83;;;5.55;;
2187;SDS011;1100;52.014;8.540;2022-08-21T04:46:59;10.50;;;4.20;;
2187;SDS011;1100;52.014;8.540;2022-08-21T04:49:24;10.10;;;4.60;;
2187;SDS011;1100;52.014;8.540;2022-08-21T04:51:49;7.63;;;3.28;;
2187;SDS011;1100;52.014;8.540;2022-08-21T04:54:19;8.63;;;3.37;;
2187;SDS011;1100;52.014;8.540;2022-08-21T04:56:58;6.38;;;3.50;;
2187;SDS011;1100;52.014;8.540;2022-08-21T04:59:32;7.37;;;2.97;;
2187;SDS011;1100;52.014;8.540;2022-08-21T05:02:00;5.60;;;3.08;;
2187;SDS011;1100;52.014;8.540;2022-08-21T05:04:28;7.40;;;3.22;;
2187;SDS011;1100;52.014;8.540;2022-08-21T05:06:56;6.75;;;2.97;;
2187;SDS011;1100;52.014;8.540;2022-08-21T05:09:25;5.90;;;3.15;;
2187;SDS011;1100;52.014;8.540;2022-08-21T05:11:51;7.37;;;3.53;;
2187;SDS011;1100;52.014;8.540;2022-08-21T05:14:17;5.78;;;3.05;;
2187;SDS011;1100;52.014;8.540;2022-08-21T05:16:44;7.25;;;3.53;;
2187;SDS011;1100;52.014;8.540;2022-08-21T05:19:09;7.30;;;3.00;;
2187;SDS011;1100;52.014;8.540;2022-08-21T05:21:36;7.50;;;3.40;;
2187;SDS011;1100;52.014;8.540;2022-08-21T05:24:04;7.10;;;3.00;;
2187;SDS011;1100;52.014;8.540;2022-08-21T05:26:29;6.32;;;3.38;;
2187;SDS011;1100;52.014;8.540;2022-08-21T05:28:55;7.83;;;2.90;;
2187;SDS011;1100;52.014;8.540;2022-08-21T05:31:20;6.38;;;2.75;;
2187;SDS011;1100;52.014;8.540;2022-08-21T05:33:46;7.73;;;2.70;;
2187;SDS011;1100;52.014;8.540;2022-08-21T05:36:11;5.60;;;2.87;;
2187;SDS011;1100;52.014;8.540;2022-08-21T05:38:36;6.90;;;3.17;;
2187;SDS011;1100;52.014;8.540;2022-08-21T05:41:02;5.20;;;2.77;;
2187;SDS011;1100;52.014;8.540;2022-08-21T05:43:27;7.45;;;2.90;;
2187;SDS011;1100;52.014;8.540;2022-08-21T05:45:53;7.50;;;3.03;;
2187;SDS011;1100;52.014;8.540;2022-08-21T05:48:22;6.73;;;2.77;;
2187;SDS011;1100;52.014;8.540;2022-08-21T05:50:49;6.47;;;2.95;;
2187;SDS011;1100;52.014;8.540;2022-08-21T05:53:17;6.32;;;3.00;;
2187;SDS011;1100;52.014;8.540;2022-08-21T05:55:44;6.60;;;2.80;;
2187;SDS011;1100;52.014;8.540;2022-08-21T05:58:15;6.95;;;2.80;;
2187;SDS011;1100;52.014;8.540;2022-08-21T06:00:43;7.53;;;3.25;;
2187;SDS011;1100;52.014;8.540;2022-08-21T06:03:16;7.18;;;2.90;;
2187;SDS011;1100;52.014;8.540;2022-08-21T06:05:46;6.95;;;2.65;;
2187;SDS011;1100;52.014;8.540;2022-08-21T06:08:12;5.70;;;2.90;;
2187;SDS011;1100;52.014;8.540;2022-08-21T06:10:39;7.85;;;3.05;;
2187;SDS011;1100;52.014;8.540;2022-08-21T06:13:04;5.90;;;2.70;;
2187;SDS011;1100;52.014;8.540;2022-08-21T06:15:30;7.53;;;2.80;;
2187;SDS011;1100;52.014;8.540;2022-08-21T06:17:55;5.47;;;2.53;;
2187;SDS011;1100;52.014;8.540;2022-08-21T06:20:21;5.40;;;2.58;;
2187;SDS011;1100;52.014;8.540;2022-08-21T06:22:47;5.73;;;2.93;;
2187;SDS011;1100;52.014;8.540;2022-08-21T06:25:13;6.68;;;3.10;;
2187;SDS011;1100;52.014;8.540;2022-08-21T06:27:39;6.50;;;2.90;;
2187;SDS011;1100;52.014;8.540;2022-08-21T06:30:05;5.13;;;2.45;;
2187;SDS011;1100;52.014;8.540;2022-08-21T06:32:31;7.03;;;2.70;;
2187;SDS011;1100;52.014;8.540;2022-08-21T06:34:56;6.53;;;2.93;;
2187;SDS011;1100;52.014;8.540;2022-08-21T06:37:24;5.63;;;2.53;;
2187;SDS011;1100;52.014;8.540;2022-08-21T06:39:50;6.10;;;2.72;;
2187;SDS011;1100;52.014;8.540;2022-08-21T06:42:16;6.57;;;3.00;;
2187;SDS011;1100;52.014;8.540;2022-08-21T06:44:42;7.70;;;3.10;;
2187;SDS011;1100;52.014;8.540;2022-08-21T06:47:08;5.35;;;2.40;;
2187;SDS011;1100;52.014;8.540;2022-08-21T06:49:34;5.97;;;2.57;;
2187;SDS011;1100;52.014;8.540;2022-08-21T06:52:00;10.32;;;3.20;;
2187;SDS011;1100;52.014;8.540;2022-08-21T06:54:25;6.63;;;2.70;;
2187;SDS011;1100;52.014;8.540;2022-08-21T06:56:51;8.45;;;3.47;;
2187;SDS011;1100;52.014;8.540;2022-08-21T06:59:17;7.70;;;3.43;;
2187;SDS011;1100;52.014;8.540;2022-08-21T07:01:43;6.68;;;3.10;;
2187;SDS011;1100;52.014;8.540;2022-08-21T07:04:08;7.20;;;3.60;;
2187;SDS011;1100;52.014;8.540;2022-08-21T07:06:34;9.68;;;3.20;;
2187;SDS011;1100;52.014;8.540;2022-08-21T07:08:59;10.70;;;4.83;;
2187;SDS011;1100;52.014;8.540;2022-08-21T07:11:26;8.95;;;4.88;;
2187;SDS011;1100;52.014;8.540;2022-08-21T07:13:51;14.23;;;4.70;;
2187;SDS011;1100;52.014;8.540;2022-08-21T07:16:19;10.93;;;4.70;;
2187;SDS011;1100;52.014;8.540;2022-08-21T07:18:45;11.18;;;4.82;;
2187;SDS011;1100;52.014;8.540;2022-08-21T07:21:11;11.53;;;4.43;;
2187;SDS011;1100;52.014;8.540;2022-08-21T07:23:38;10.10;;;4.33;;
2187;SDS011;1100;52.014;8.540;2022-08-21T07:26:12;9.05;;;4.20;;
2187;SDS011;1100;52.014;8.540;2022-08-21T07:28:40;10.93;;;3.95;;
2187;SDS011;1100;52.014;8.540;2022-08-21T07:31:05;8.77;;;3.43;;
2187;SDS011;1100;52.014;8.540;2022-08-21T07:33:32;9.90;;;4.10;;
2187;SDS011;1100;52.014;8.540;2022-08-21T07:35:58;10.95;;;4.53;;
2187;SDS011;1100;52.014;8.540;2022-08-21T07:38:24;10.55;;;3.97;;
2187;SDS011;1100;52.014;8.540;2022-08-21T07:40:50;11.70;;;4.30;;
2187;SDS011;1100;52.014;8.540;2022-08-21T07:43:19;10.07;;;4.20;;
2187;SDS011;1100;52.014;8.540;2022-08-21T07:45:46;8.50;;;4.40;;
2187;SDS011;1100;52.014;8.540;2022-08-21T07:48:14;11.63;;;4.10;;
2187;SDS011;1100;52.014;8.540;2022-08-21T07:50:39;9.63;;;3.78;;
2187;SDS011;1100;52.014;8.540;2022-08-21T07:53:06;10.33;;;3.83;;
2187;SDS011;1100;52.014;8.540;2022-08-21T07:55:32;9.10;;;3.60;;
2187;SDS011;1100;52.014;8.540;2022-08-21T07:57:57;8.98;;;3.85;;
2187;SDS011;1100;52.014;8.540;2022-08-21T08:00:24;8.17;;;3.30;;
2187;SDS011;1100;52.014;8.540;2022-08-21T08:02:52;7.47;;;3.13;;
2187;SDS011;1100;52.014;8.540;2022-08-21T08:05:19;6.80;;;2.70;;
2187;SDS011;1100;52.014;8.540;2022-08-21T08:07:47;7.95;;;2.78;;
2187;SDS011;1100;52.014;8.540;2022-08-21T08:10:12;12.30;;;3.87;;
2187;SDS011;1100;52.014;8.540;2022-08-21T08:12:39;9.02;;;3.67;;
2187;SDS011;1100;52.014;8.540;2022-08-21T08:15:08;9.50;;;3.25;;
2187;SDS011;1100;52.014;8.540;2022-08-21T08:17:36;7.50;;;2.63;;
2187;SDS011;1100;52.014;8.540;2022-08-21T08:20:03;7.83;;;2.07;;
2187;SDS011;1100;52.014;8.540;2022-08-21T08:22:30;10.60;;;2.67;;
2187;SDS011;1100;52.014;8.540;2022-08-21T08:24:55;7.87;;;2.17;;
2187;SDS011;1100;52.014;8.540;2022-08-21T08:27:21;8.98;;;2.33;;
2187;SDS011;1100;52.014;8.540;2022-08-21T08:29:47;9.10;;;2.57;;
2187;SDS011;1100;52.014;8.540;2022-08-21T08:32:13;9.85;;;2.65;;
2187;SDS011;1100;52.014;8.540;2022-08-21T08:34:39;7.15;;;2.30;;
2187;SDS011;1100;52.014;8.540;2022-08-21T08:37:05;9.67;;;2.57;;
2187;SDS011;1100;52.014;8.540;2022-08-21T08:39:32;8.35;;;2.70;;
2187;SDS011;1100;52.014;8.540;2022-08-21T08:41:59;7.13;;;1.92;;
2187;SDS011;1100;52.014;8.540;2022-08-21T08:44:28;8.48;;;2.38;;
2187;SDS011;1100;52.014;8.540;2022-08-21T08:46:54;7.77;;;1.90;;
2187;SDS011;1100;52.014;8.540;2022-08-21T08:52:01;7.60;;;2.20;;
2187;SDS011;1100;52.014;8.540;2022-08-21T08:54:33;8.17;;;2.40;;
2187;SDS011;1100;52.014;8.540;2022-08-21T08:57:03;7.45;;;2.03;;
2187;SDS011;1100;52.014;8.540;2022-08-21T08:59:44;8.70;;;2.20;;
2187;SDS011;1100;52.014;8.540;2022-08-21T09:02:14;6.63;;;1.98;;
2187;SDS011;1100;52.014;8.540;2022-08-21T09:04:41;7.53;;;1.98;;
2187;SDS011;1100;52.014;8.540;2022-08-21T09:12:46;8.57;;;2.00;;
2187;SDS011;1100;52.014;8.540;2022-08-21T09:15:20;7.97;;;2.22;;
2187;SDS011;1100;52.014;8.540;2022-08-21T09:18:06;10.75;;;2.30;;
2187;SDS011;1100;52.014;8.540;2022-08-21T09:20:46;7.73;;;1.70;;
2187;SDS011;1100;52.014;8.540;2022-08-21T09:26:14;13.07;;;2.80;;
2187;SDS011;1100;52.014;8.540;2022-08-21T09:28:42;7.75;;;2.03;;
2187;SDS011;1100;52.014;8.540;2022-08-21T09:31:11;6.55;;;2.45;;
2187;SDS011;1100;52.014;8.540;2022-08-21T09:33:46;9.20;;;2.63;;
2187;SDS011;1100;52.014;8.540;2022-08-21T09:36:11;8.63;;;2.65;;
2187;SDS011;1100;52.014;8.540;2022-08-21T09:38:36;7.83;;;2.40;;
2187;SDS011;1100;52.014;8.540;2022-08-21T09:41:09;10.35;;;3.38;;
2187;SDS011;1100;52.014;8.540;2022-08-21T09:43:36;7.47;;;2.30;;
2187;SDS011;1100;52.014;8.540;2022-08-21T09:48:42;8.75;;;2.63;;
2187;SDS011;1100;52.014;8.540;2022-08-21T09:51:17;10.05;;;2.72;;
2187;SDS011;1100;52.014;8.540;2022-08-21T09:53:49;9.75;;;3.60;;
2187;SDS011;1100;52.014;8.540;2022-08-21T09:59:19;8.00;;;2.22;;
2187;SDS011;1100;52.014;8.540;2022-08-21T10:01:57;8.85;;;3.05;;
2187;SDS011;1100;52.014;8.540;2022-08-21T10:04:30;8.00;;;3.38;;
2187;SDS011;1100;52.014;8.540;2022-08-21T10:07:08;7.20;;;2.88;;
2187;SDS011;1100;52.014;8.540;2022-08-21T10:09:35;9.73;;;3.03;;
2187;SDS011;1100;52.014;8.540;2022-08-21T10:14:57;7.43;;;3.00;;
2187;SDS011;1100;52.014;8.540;2022-08-21T10:22:46;7.80;;;2.53;;
2187;SDS011;1100;52.014;8.540;2022-08-21T10:25:31;9.13;;;3.25;;
2187;SDS011;1100;52.014;8.540;2022-08-21T10:30:48;8.50;;;3.20;;
2187;SDS011;1100;52.014;8.540;2022-08-21T10:38:59;8.15;;;3.10;;
2187;SDS011;1100;52.014;8.540;2022-08-21T10:47:19;9.85;;;2.55;;
2187;SDS011;1100;52.014;8.540;2022-08-21T10:55:31;8.23;;;2.15;;
2187;SDS011;1100;52.014;8.540;2022-08-21T10:57:58;6.50;;;1.85;;
2187;SDS011;1100;52.014;8.540;2022-08-21T11:00:50;6.32;;;2.22;;
2187;SDS011;1100;52.014;8.540;2022-08-21T11:06:16;8.93;;;2.65;;
2187;SDS011;1100;52.014;8.540;2022-08-21T11:08:49;6.13;;;1.85;;
2187;SDS011;1100;52.014;8.540;2022-08-21T11:11:32;6.70;;;2.17;;
2187;SDS011;1100;52.014;8.540;2022-08-21T11:16:51;9.73;;;2.10;;
2187;SDS011;1100;52.014;8.540;2022-08-21T11:19:28;9.52;;;1.98;;
2187;SDS011;1100;52.014;8.540;2022-08-21T11:24:41;8.57;;;2.20;;
2187;SDS011;1100;52.014;8.540;2022-08-21T11:29:52;7.57;;;1.93;;
2187;SDS011;1100;52.014;8.540;2022-08-21T11:35:03;7.88;;;2.20;;
2187;SDS011;1100;52.014;8.540;2022-08-21T11:48:55;5.65;;;2.08;;
2187;SDS011;1100;52.014;8.540;2022-08-21T11:51:37;4.70;;;1.98;;
2187;SDS011;1100;52.014;8.540;2022-08-21T11:56:41;6.97;;;2.30;;
2187;SDS011;1100;52.014;8.540;2022-08-21T11:59:16;6.63;;;2.30;;
2187;SDS011;1100;52.014;8.540;2022-08-21T12:01:48;7.60;;;2.10;;
2187;SDS011;1100;52.014;8.540;2022-08-21T12:06:47;8.27;;;2.40;;
2187;SDS011;1100;52.014;8.540;2022-08-21T12:11:50;5.70;;;1.93;;
2187;SDS011;1100;52.014;8.540;2022-08-21T12:15:05;7.20;;;2.10;;
2187;SDS011;1100;52.014;8.540;2022-08-21T12:17:38;6.45;;;2.00;;
2187;SDS011;1100;52.014;8.540;2022-08-21T12:22:50;6.25;;;2.00;;
2187;SDS011;1100;52.014;8.540;2022-08-21T12:25:19;8.60;;;2.00;;
2187;SDS011;1100;52.014;8.540;2022-08-21T12:27:50;8.38;;;2.33;;
2187;SDS011;1100;52.014;8.540;2022-08-21T12:32:56;5.70;;;1.95;;
2187;SDS011;1100;52.014;8.540;2022-08-21T12:35:25;6.50;;;2.42;;
2187;SDS011;1100;52.014;8.540;2022-08-21T12:40:40;5.65;;;2.25;;
2187;SDS011;1100;52.014;8.540;2022-08-21T12:43:11;6.68;;;2.45;;
2187;SDS011;1100;52.014;8.540;2022-08-21T12:45:41;7.00;;;2.58;;
2187;SDS011;1100;52.014;8.540;2022-08-21T12:48:14;5.47;;;2.40;;
2187;SDS011;1100;52.014;8.540;2022-08-21T12:50:58;6.57;;;2.40;;
2187;SDS011;1100;52.014;8.540;2022-08-21T12:56:21;4.93;;;1.90;;
2187;SDS011;1100;52.014;8.540;2022-08-21T12:59:01;7.65;;;2.10;;
2187;SDS011;1100;52.014;8.540;2022-08-21T13:04:04;5.07;;;1.60;;
2187;SDS011;1100;52.014;8.540;2022-08-21T13:06:37;9.63;;;1.95;;
2187;SDS011;1100;52.014;8.540;2022-08-21T13:09:06;7.28;;;2.15;;
2187;SDS011;1100;52.014;8.540;2022-08-21T13:11:34;5.85;;;1.52;;
2187;SDS011;1100;52.014;8.540;2022-08-21T13:14:01;5.90;;;1.70;;
2187;SDS011;1100;52.014;8.540;2022-08-21T13:16:28;6.18;;;1.73;;
2187;SDS011;1100;52.014;8.540;2022-08-21T13:18:59;7.03;;;1.45;;
2187;SDS011;1100;52.014;8.540;2022-08-21T13:21:27;5.82;;;1.55;;
2187;SDS011;1100;52.014;8.540;2022-08-21T13:24:17;4.00;;;1.30;;
2187;SDS011;1100;52.014;8.540;2022-08-21T13:26:50;4.93;;;1.27;;
2187;SDS011;1100;52.014;8.540;2022-08-21T13:29:20;3.70;;;1.10;;
2187;SDS011;1100;52.014;8.540;2022-08-21T13:34:23;7.38;;;1.15;;
2187;SDS011;1100;52.014;8.540;2022-08-21T13:36:52;5.10;;;1.00;;
2187;SDS011;1100;52.014;8.540;2022-08-21T13:39:21;6.78;;;1.20;;
2187;SDS011;1100;52.014;8.540;2022-08-21T13:41:49;4.60;;;1.30;;
2187;SDS011;1100;52.014;8.540;2022-08-21T13:44:20;7.60;;;1.63;;
2187;SDS011;1100;52.014;8.540;2022-08-21T13:46:51;5.63;;;1.50;;
2187;SDS011;1100;52.014;8.540;2022-08-21T13:49:19;5.75;;;1.42;;
2187;SDS011;1100;52.014;8.540;2022-08-21T13:51:51;7.18;;;1.50;;
2187;SDS011;1100;52.014;8.540;2022-08-21T13:54:24;7.10;;;1.77;;
2187;SDS011;1100;52.014;8.540;2022-08-21T13:56:52;5.18;;;1.25;;
2187;SDS011;1100;52.014;8.540;2022-08-21T13:59:29;4.18;;;1.30;;
2187;SDS011;1100;52.014;8.540;2022-08-21T14:02:41;5.95;;;1.55;;
2187;SDS011;1100;52.014;8.540;2022-08-21T14:07:30;6.25;;;1.58;;
2187;SDS011;1100;52.014;8.540;2022-08-21T14:10:03;5.15;;;1.40;;
2187;SDS011;1100;52.014;8.540;2022-08-21T14:15:14;7.28;;;1.58;;
2187;SDS011;1100;52.014;8.540;2022-08-21T14:17:42;4.70;;;1.53;;
2187;SDS011;1100;52.014;8.540;2022-08-21T14:20:11;5.90;;;1.38;;
2187;SDS011;1100;52.014;8.540;2022-08-21T14:22:49;4.80;;;1.50;;
2187;SDS011;1100;52.014;8.540;2022-08-21T14:30:50;5.78;;;1.13;;
2187;SDS011;1100;52.014;8.540;2022-08-21T14:33:18;6.13;;;1.30;;
2187;SDS011;1100;52.014;8.540;2022-08-21T14:35:50;7.90;;;1.60;;
2187;SDS011;1100;52.014;8.540;2022-08-21T14:38:16;4.15;;;1.45;;
2187;SDS011;1100;52.014;8.540;2022-08-21T14:40:43;5.50;;;1.33;;
2187;SDS011;1100;52.014;8.540;2022-08-21T14:43:12;5.32;;;1.77;;
2187;SDS011;1100;52.014;8.540;2022-08-21T14:45:37;5.65;;;1.67;;
2187;SDS011;1100;52.014;8.540;2022-08-21T14:48:05;6.77;;;2.10;;
2187;SDS011;1100;52.014;8.540;2022-08-21T14:50:32;5.43;;;1.88;;
2187;SDS011;1100;52.014;8.540;2022-08-21T14:52:57;6.17;;;1.73;;
2187;SDS011;1100;52.014;8.540;2022-08-21T14:55:23;5.68;;;2.00;;
2187;SDS011;1100;52.014;8.540;2022-08-21T14:57:49;6.90;;;2.00;;
2187;SDS011;1100;52.014;8.540;2022-08-21T15:00:17;5.43;;;1.45;;
2187;SDS011;1100;52.014;8.540;2022-08-21T15:02:48;5.82;;;1.52;;
2187;SDS011;1100;52.014;8.540;2022-08-21T15:05:14;7.80;;;1.30;;
2187;SDS011;1100;52.014;8.540;2022-08-21T15:07:40;4.00;;;1.25;;
2187;SDS011;1100;52.014;8.540;2022-08-21T15:10:06;4.67;;;1.13;;
2187;SDS011;1100;52.014;8.540;2022-08-21T15:12:32;4.68;;;1.30;;
2187;SDS011;1100;52.014;8.540;2022-08-21T15:14:58;4.60;;;1.37;;
2187;SDS011;1100;52.014;8.540;2022-08-21T15:17:23;4.65;;;1.38;;
2187;SDS011;1100;52.014;8.540;2022-08-21T15:19:49;4.73;;;1.30;;
2187;SDS011;1100;52.014;8.540;2022-08-21T15:22:14;5.90;;;1.00;;
2187;SDS011;1100;52.014;8.540;2022-08-21T15:24:40;4.47;;;1.20;;
2187;SDS011;1100;52.014;8.540;2022-08-21T15:27:06;4.27;;;1.00;;
2187;SDS011;1100;52.014;8.540;2022-08-21T15:29:33;6.85;;;1.10;;
2187;SDS011;1100;52.014;8.540;2022-08-21T15:31:59;4.00;;;1.10;;
2187;SDS011;1100;52.014;8.540;2022-08-21T15:34:27;4.95;;;1.10;;
2187;SDS011;1100;52.014;8.540;2022-08-21T15:36:55;3.58;;;1.10;;
2187;SDS011;1100;52.014;8.540;2022-08-21T15:39:21;4.57;;;1.00;;
2187;SDS011;1100;52.014;8.540;2022-08-21T15:41:47;4.18;;;1.20;;
2187;SDS011;1100;52.014;8.540;2022-08-21T15:44:13;5.73;;;1.23;;
2187;SDS011;1100;52.014;8.540;2022-08-21T15:46:39;3.88;;;1.10;;
2187;SDS011;1100;52.014;8.540;2022-08-21T15:49:05;3.72;;;0.90;;
2187;SDS011;1100;52.014;8.540;2022-08-21T15:51:32;4.87;;;1.00;;
2187;SDS011;1100;52.014;8.540;2022-08-21T15:53:58;5.53;;;1.00;;
2187;SDS011;1100;52.014;8.540;2022-08-21T15:56:24;10.57;;;1.20;;
2187;SDS011;1100;52.014;8.540;2022-08-21T15:58:53;4.27;;;1.03;;
2187;SDS011;1100;52.014;8.540;2022-08-21T16:01:24;3.35;;;0.95;;
2187;SDS011;1100;52.014;8.540;2022-08-21T16:03:50;4.88;;;0.88;;
2187;SDS011;1100;52.014;8.540;2022-08-21T16:06:17;3.90;;;1.00;;
2187;SDS011;1100;52.014;8.540;2022-08-21T16:08:42;4.43;;;0.90;;
2187;SDS011;1100;52.014;8.540;2022-08-21T16:11:08;3.80;;;1.20;;
2187;SDS011;1100;52.014;8.540;2022-08-21T16:13:36;3.08;;;1.02;;
2187;SDS011;1100;52.014;8.540;2022-08-21T16:16:04;2.57;;;0.70;;
2187;SDS011;1100;52.014;8.540;2022-08-21T16:18:30;4.22;;;1.02;;
2187;SDS011;1100;52.014;8.540;2022-08-21T16:20:56;2.90;;;0.90;;
2187;SDS011;1100;52.014;8.540;2022-08-21T16:23:21;3.27;;;0.80;;
2187;SDS011;1100;52.014;8.540;2022-08-21T16:25:46;3.63;;;0.90;;
2187;SDS011;1100;52.014;8.540;2022-08-21T16:28:13;4.47;;;1.33;;
2187;SDS011;1100;52.014;8.540;2022-08-21T16:30:41;5.40;;;1.10;;
2187;SDS011;1100;52.014;8.540;2022-08-21T16:33:14;3.63;;;0.73;;
2187;SDS011;1100;52.014;8.540;2022-08-21T16:36:02;3.13;;;0.80;;
2187;SDS011;1100;52.014;8.540;2022-08-21T16:38:28;5.55;;;1.13;;
2187;SDS011;1100;52.014;8.540;2022-08-21T16:40:53;3.13;;;0.60;;
2187;SDS011;1100;52.014;8.540;2022-08-21T16:43:21;4.53;;;0.95;;
2187;SDS011;1100;52.014;8.540;2022-08-21T16:45:50;3.33;;;0.90;;
2187;SDS011;1100;52.014;8.540;2022-08-21T16:48:17;2.80;;;0.70;;
2187;SDS011;1100;52.014;8.540;2022-08-21T16:50:42;4.33;;;1.10;;
2187;SDS011;1100;52.014;8.540;2022-08-21T16:53:07;4.03;;;0.90;;
2187;SDS011;1100;52.014;8.540;2022-08-21T16:55:33;2.73;;;0.70;;
2187;SDS011;1100;52.014;8.540;2022-08-21T16:58:00;4.13;;;0.77;;
2187;SDS011;1100;52.014;8.540;2022-08-21T17:00:29;3.63;;;0.77;;
2187;SDS011;1100;52.014;8.540;2022-08-21T17:02:54;26.03;;;14.03;;